Pagrindinis puslapis
METAR-TAF:

METAR-TAF

Oro uostai :

Kudat, Malaizija

platuma: 06-55N, ilguma: 116-50E, Aukštis: 3 m

Dabartinis oras

Ataskaita buvo paskelbta 10 minutes, ne 21:00 UTC
Vėjas 2 kt nuo kintamojo kryptimis
Temperatūra 23°C
Drėgmė 100%
Slėgis 1009 hPa
Matomumas: 4000 m
Mažai debesys ne aukštis 1400 ft
Išsisklaidę debesys ne aukštis 14000 ft
Su prošvaistėmis ne aukštis 27000 ft
migla

METAR: WBKT 202100Z VRB02KT 4000 HZ FEW014 SCT140 BKN270 23/23 Q1009

Laikas: 05:10 (21:10 UTC)


TAF: trūkstamas

Orai ataskaitas ir orų prognozės (METAR, TAF).

turimą stotys yra geltonos ir raudonos taškus žemėlapyje.

Perkelti pele per norėdami pamatyti stoties vardą.

Tada spustelėkite, norėdami matyti oro stebėjimo ir prognozės.

Norėdami pakeisti žemėlapį: spustelėkite ant žalios mygtukų su juodo kryžiaus žemyn,; žalią mygtuką su brūkšneliu, jei norite nutolinti; arba žalių rodyklių gretimoms žemėlapius.


METAR-TAF: